createdAt,value
2022-08-28T00:00:19.469Z,101028.65
2022-08-28T00:01:39.707Z,101029.74
2022-08-28T00:02:41.549Z,101027.85
2022-08-28T00:03:43.500Z,101027.91
2022-08-28T00:04:45.129Z,101028.30
2022-08-28T00:05:46.893Z,101028.51
2022-08-28T00:06:48.512Z,101030.20
2022-08-28T00:07:50.157Z,101027.80
2022-08-28T00:08:52.080Z,101030.03
2022-08-28T00:09:53.728Z,101028.68
2022-08-28T00:10:55.826Z,101026.61
2022-08-28T00:11:57.374Z,101024.48
2022-08-28T00:12:59.360Z,101026.67
2022-08-28T00:14:02.233Z,101025.92
2022-08-28T00:15:06.746Z,101026.69
2022-08-28T00:16:11.286Z,101027.14
2022-08-28T00:17:12.970Z,101025.73
2022-08-28T00:18:15.132Z,101022.70
2022-08-28T00:19:18.197Z,101021.28
2022-08-28T00:20:20.238Z,101026.08
2022-08-28T00:21:21.963Z,101020.20
2022-08-28T00:22:23.589Z,101023.64
2022-08-28T00:23:25.765Z,101020.33
2022-08-28T00:24:42.241Z,101023.70
2022-08-28T00:25:43.882Z,101024.35
2022-08-28T00:27:04.039Z,101022.27
2022-08-28T00:28:08.770Z,101022.81
2022-08-28T00:29:10.873Z,101022.41
2022-08-28T00:30:12.584Z,101024.88
2022-08-28T00:31:14.181Z,101019.80
2022-08-28T00:32:15.944Z,101020.52
2022-08-28T00:33:25.456Z,101024.00
2022-08-28T00:34:33.523Z,101021.39
2022-08-28T00:35:35.719Z,101023.36
2022-08-28T00:36:37.983Z,101022.12
2022-08-28T00:37:39.570Z,101020.48
2022-08-28T00:38:41.406Z,101020.21
2022-08-28T00:39:44.178Z,101017.70
2022-08-28T00:40:46.972Z,101018.80
2022-08-28T00:41:50.083Z,101017.11
2022-08-28T00:42:59.751Z,101016.79
2022-08-28T00:44:13.424Z,101016.96
2022-08-28T00:45:15.698Z,101016.04
2022-08-28T00:46:19.138Z,101017.66
2022-08-28T00:47:25.614Z,101015.53
2022-08-28T00:48:27.502Z,101009.67
2022-08-28T00:49:30.754Z,101014.19
2022-08-28T00:50:51.909Z,101011.95
2022-08-28T00:52:12.261Z,101011.92
2022-08-28T00:53:14.121Z,101014.92
2022-08-28T00:54:17.134Z,101015.52
2022-08-28T00:55:22.889Z,101010.83
2022-08-28T00:56:24.790Z,101011.36
2022-08-28T00:57:29.515Z,101012.45
2022-08-28T00:58:31.152Z,101011.39
2022-08-28T00:59:33.506Z,101013.73
2022-08-28T01:00:36.615Z,101010.95
2022-08-28T01:01:38.538Z,101008.66
2022-08-28T01:02:40.374Z,101011.60
2022-08-28T01:03:42.516Z,101010.73
2022-08-28T01:04:44.596Z,101008.59
2022-08-28T01:05:48.529Z,101008.66
2022-08-28T01:06:53.793Z,101011.39
2022-08-28T01:07:58.096Z,101008.13
2022-08-28T01:09:00.022Z,101007.14
2022-08-28T01:10:01.659Z,101006.54
2022-08-28T01:11:04.888Z,101006.88
2022-08-28T01:12:20.259Z,101007.31
2022-08-28T01:13:23.740Z,101002.84
2022-08-28T01:14:26.007Z,101006.05
2022-08-28T01:15:29.515Z,101008.12
2022-08-28T01:16:33.834Z,101008.30
2022-08-28T01:17:37.934Z,101007.80
2022-08-28T01:18:42.580Z,101007.48
2022-08-28T01:19:46.025Z,101009.86
2022-08-28T01:20:51.170Z,101005.16
2022-08-28T01:22:01.323Z,101004.66
2022-08-28T01:23:24.425Z,101002.90
2022-08-28T01:24:26.650Z,101004.31
2022-08-28T01:25:30.738Z,101004.27
2022-08-28T01:26:32.314Z,101004.48
2022-08-28T01:27:34.082Z,101006.35
2022-08-28T01:28:35.720Z,101008.26
2022-08-28T01:29:37.364Z,101007.76
2022-08-28T01:32:00.195Z,101007.59
2022-08-28T01:33:02.003Z,101006.06
2022-08-28T01:34:05.684Z,101004.27
2022-08-28T01:35:09.359Z,101004.66
2022-08-28T01:36:12.000Z,101006.23
2022-08-28T01:37:13.615Z,101002.14
2022-08-28T01:38:17.602Z,101003.51
2022-08-28T01:39:22.821Z,101005.05
2022-08-28T01:40:29.419Z,101001.39
2022-08-28T01:41:31.100Z,100998.94
2022-08-28T01:42:36.472Z,100996.48
2022-08-28T01:43:39.431Z,100995.17
2022-08-28T01:44:40.993Z,100993.38
2022-08-28T01:45:44.325Z,100996.98
2022-08-28T01:46:46.162Z,100993.34
2022-08-28T01:47:48.178Z,100994.30
2022-08-28T01:48:53.074Z,100995.73
2022-08-28T01:49:54.608Z,100995.99
2022-08-28T01:50:56.250Z,100996.80
2022-08-28T01:51:57.948Z,100997.21
2022-08-28T01:52:59.990Z,100996.50
2022-08-28T01:54:01.903Z,100996.01
2022-08-28T01:55:05.619Z,101000.41
2022-08-28T01:56:10.055Z,100998.45
2022-08-28T01:57:11.592Z,100997.30
2022-08-28T01:58:13.395Z,100997.48
2022-08-28T01:59:15.145Z,100999.77
2022-08-28T02:00:17.559Z,100998.16
2022-08-28T02:01:21.073Z,100995.38
2022-08-28T02:02:22.819Z,100998.14
2022-08-28T02:03:24.650Z,100994.71
2022-08-28T02:04:32.122Z,100994.66
2022-08-28T02:05:34.606Z,100994.83
2022-08-28T02:06:37.234Z,100996.24
2022-08-28T02:07:39.125Z,100993.84
2022-08-28T02:08:40.886Z,100994.61
2022-08-28T02:09:42.836Z,100998.14
2022-08-28T02:10:44.489Z,100996.08
2022-08-28T02:11:46.879Z,100998.58
2022-08-28T02:12:49.444Z,100995.05
2022-08-28T02:13:51.931Z,100994.95
2022-08-28T02:14:56.051Z,100994.17
2022-08-28T02:16:00.310Z,100995.00
2022-08-28T02:17:02.391Z,100999.12
2022-08-28T02:18:05.195Z,101000.42
2022-08-28T02:19:06.813Z,100998.91
2022-08-28T02:20:08.726Z,100997.77
2022-08-28T02:21:11.450Z,100998.69
2022-08-28T02:22:13.122Z,100997.83
2022-08-28T02:23:14.852Z,100998.30
2022-08-28T02:24:16.733Z,100994.89
2022-08-28T02:25:18.850Z,100994.71
2022-08-28T02:26:21.072Z,100996.35
2022-08-28T02:27:22.686Z,100991.56
2022-08-28T02:28:24.350Z,100991.61
2022-08-28T02:29:26.620Z,100990.48
2022-08-28T02:30:29.587Z,100991.84
2022-08-28T02:31:31.414Z,100991.90
2022-08-28T02:32:33.083Z,100990.48
2022-08-28T02:33:37.003Z,100992.64
2022-08-28T02:34:39.635Z,100995.54
2022-08-28T02:35:41.909Z,100996.40
2022-08-28T02:36:43.543Z,100996.13
2022-08-28T02:37:47.637Z,100999.60
2022-08-28T02:38:55.376Z,101000.31
2022-08-28T02:39:59.131Z,101001.20
2022-08-28T02:41:01.060Z,100998.73
2022-08-28T02:42:06.026Z,100995.35
2022-08-28T02:43:07.885Z,100995.08
2022-08-28T02:44:09.569Z,100992.42
2022-08-28T02:45:11.878Z,100993.95
2022-08-28T02:46:13.788Z,100995.42
2022-08-28T02:47:15.546Z,100996.88
2022-08-28T02:48:17.698Z,100992.58
2022-08-28T02:49:19.435Z,100991.55
2022-08-28T02:50:21.204Z,100991.88
2022-08-28T02:51:23.106Z,100992.48
2022-08-28T02:52:24.737Z,100993.02
2022-08-28T02:53:27.578Z,100997.55
2022-08-28T02:54:30.379Z,100995.37
2022-08-28T02:55:34.176Z,100991.39
2022-08-28T02:56:36.189Z,100993.77
2022-08-28T02:57:37.950Z,100991.10
2022-08-28T02:58:40.084Z,100991.27
2022-08-28T02:59:43.300Z,100988.39
2022-08-28T03:00:44.967Z,100988.59
2022-08-28T03:01:46.883Z,100988.29
2022-08-28T03:02:49.087Z,100987.19
2022-08-28T03:03:50.770Z,100983.70
2022-08-28T03:04:52.307Z,100986.52
2022-08-28T03:05:55.063Z,100989.30
2022-08-28T03:06:57.569Z,100985.54
2022-08-28T03:07:59.126Z,100990.33
2022-08-28T03:09:00.636Z,100984.63
2022-08-28T03:10:03.669Z,100984.39
2022-08-28T03:11:05.256Z,100983.73
2022-08-28T03:12:07.848Z,100982.05
2022-08-28T03:13:10.593Z,100981.46
2022-08-28T03:14:25.717Z,100978.96
2022-08-28T03:15:27.918Z,100980.70
2022-08-28T03:16:30.303Z,100981.79
2022-08-28T03:17:32.021Z,100979.50
2022-08-28T03:18:33.855Z,100978.67
2022-08-28T03:19:35.511Z,100982.41
2022-08-28T03:20:37.270Z,100984.89
2022-08-28T03:21:39.017Z,100981.94
2022-08-28T03:22:59.312Z,100984.23
2022-08-28T03:24:01.007Z,100988.84
2022-08-28T03:25:03.181Z,100987.30
2022-08-28T03:26:08.922Z,100981.87
2022-08-28T03:27:11.130Z,100982.85
2022-08-28T03:28:12.915Z,100983.59
2022-08-28T03:29:14.818Z,100978.53
2022-08-28T03:30:17.734Z,100981.31
2022-08-28T03:31:21.315Z,100979.60
2022-08-28T03:32:22.940Z,100982.02
2022-08-28T03:33:26.171Z,100977.65
2022-08-28T03:34:27.764Z,100982.91
2022-08-28T03:35:29.389Z,100982.03
2022-08-28T03:36:31.340Z,100986.11
2022-08-28T03:37:32.983Z,100986.17
2022-08-28T03:38:35.154Z,100988.80
2022-08-28T03:39:36.944Z,100988.56
2022-08-28T03:40:39.855Z,100992.59
2022-08-28T03:41:41.505Z,100993.35
2022-08-28T03:42:43.230Z,100992.38
2022-08-28T03:43:56.690Z,100991.88
2022-08-28T03:44:58.244Z,100988.50
2022-08-28T03:46:01.700Z,100989.38
2022-08-28T03:47:04.407Z,100989.48
2022-08-28T03:48:07.306Z,100989.55
2022-08-28T03:49:09.113Z,100985.69
2022-08-28T03:50:11.325Z,100989.53
2022-08-28T03:51:14.465Z,100984.58
2022-08-28T03:52:16.812Z,100983.98
2022-08-28T03:53:19.386Z,100983.98
2022-08-28T03:54:21.243Z,100979.72
2022-08-28T03:55:22.778Z,100982.49
2022-08-28T03:56:26.220Z,100980.81
2022-08-28T03:57:27.842Z,100985.11
2022-08-28T03:58:29.702Z,100989.28
2022-08-28T03:59:33.524Z,100991.20
2022-08-28T04:00:35.670Z,100984.23
2022-08-28T04:01:37.613Z,100981.15
2022-08-28T04:02:40.366Z,100980.81
2022-08-28T04:03:41.984Z,100981.41
2022-08-28T04:04:43.989Z,100982.39
2022-08-28T04:05:46.222Z,100985.17
2022-08-28T04:06:48.027Z,100989.58
2022-08-28T04:07:50.720Z,100988.65
2022-08-28T04:08:52.351Z,100993.27
2022-08-28T04:09:53.951Z,100988.05
2022-08-28T04:10:56.005Z,100989.59
2022-08-28T04:11:57.563Z,100987.58
2022-08-28T04:12:59.585Z,100986.32
2022-08-28T04:14:01.454Z,100989.43
2022-08-28T04:15:03.611Z,100987.58
2022-08-28T04:16:09.954Z,100992.41
2022-08-28T04:17:11.688Z,100992.52
2022-08-28T04:18:13.620Z,100992.96
2022-08-28T04:19:15.404Z,100997.98
2022-08-28T04:20:17.133Z,100992.70
2022-08-28T04:21:21.747Z,100996.45
2022-08-28T04:22:23.715Z,100995.73
2022-08-28T04:23:25.869Z,100993.35
2022-08-28T04:24:27.585Z,100994.27
2022-08-28T04:25:29.997Z,100995.24
2022-08-28T04:26:35.892Z,100997.33
2022-08-28T04:27:37.501Z,100997.77
2022-08-28T04:28:39.157Z,100997.71
2022-08-28T04:29:40.981Z,100996.30
2022-08-28T04:30:42.711Z,100999.95
2022-08-28T04:31:44.288Z,100998.55
2022-08-28T04:32:45.996Z,100995.29
2022-08-28T04:33:47.672Z,100994.52
2022-08-28T04:34:49.646Z,100999.86
2022-08-28T04:35:51.826Z,100996.11
2022-08-28T04:36:53.413Z,100997.63
2022-08-28T04:37:58.744Z,100994.97
2022-08-28T04:39:01.541Z,100994.31
2022-08-28T04:40:05.401Z,100992.84
2022-08-28T04:41:07.977Z,100993.55
2022-08-28T04:42:09.617Z,100991.42
2022-08-28T04:43:11.277Z,100995.83
2022-08-28T04:44:12.999Z,100998.66
2022-08-28T04:45:14.675Z,100994.32
2022-08-28T04:46:16.403Z,100992.42
2022-08-28T04:47:18.145Z,100998.41
2022-08-28T04:48:19.858Z,100998.35
2022-08-28T04:49:21.511Z,100997.43
2022-08-28T04:50:27.414Z,100995.21
2022-08-28T04:51:29.749Z,100996.48
2022-08-28T04:52:31.359Z,100996.20
2022-08-28T04:53:33.138Z,100995.45
2022-08-28T04:54:35.223Z,100992.57
2022-08-28T04:55:54.532Z,100996.11
2022-08-28T04:56:56.555Z,100992.23
2022-08-28T04:57:58.102Z,100994.55
2022-08-28T04:59:00.078Z,100996.56
2022-08-28T05:00:01.706Z,100998.59
2022-08-28T05:01:08.044Z,100998.67
2022-08-28T05:02:09.926Z,101000.81
2022-08-28T05:03:11.822Z,100999.57
2022-08-28T05:04:13.550Z,101004.34
2022-08-28T05:05:15.457Z,100997.83
2022-08-28T05:06:18.678Z,100996.86
2022-08-28T05:07:20.482Z,100998.77
2022-08-28T05:08:23.780Z,101003.23
2022-08-28T05:09:25.332Z,101004.71
2022-08-28T05:10:27.038Z,101005.48
2022-08-28T05:11:33.129Z,101006.93
2022-08-28T05:12:36.732Z,101006.36
2022-08-28T05:13:38.353Z,101004.48
2022-08-28T05:14:39.920Z,101003.52
2022-08-28T05:15:43.873Z,101001.88
2022-08-28T05:16:50.492Z,101003.29
2022-08-28T05:17:52.441Z,101006.88
2022-08-28T05:18:54.114Z,101009.48
2022-08-28T05:19:55.738Z,101009.58
2022-08-28T05:20:57.943Z,101009.40
2022-08-28T05:22:00.879Z,101005.84
2022-08-28T05:23:02.957Z,101004.20
2022-08-28T05:24:05.750Z,101005.15
2022-08-28T05:25:07.956Z,101004.77
2022-08-28T05:26:13.174Z,101006.77
2022-08-28T05:27:14.765Z,101007.73
2022-08-28T05:28:17.105Z,101007.72
2022-08-28T05:29:18.722Z,101006.80
2022-08-28T05:30:20.386Z,101009.55
2022-08-28T05:31:22.714Z,101009.76
2022-08-28T05:32:24.388Z,101012.73
2022-08-28T05:33:26.248Z,101015.31
2022-08-28T05:34:27.932Z,101013.90
2022-08-28T05:35:32.654Z,101014.96
2022-08-28T05:36:35.673Z,101015.16
2022-08-28T05:37:37.470Z,101014.53
2022-08-28T05:38:39.431Z,101015.36
2022-08-28T05:39:41.079Z,101012.19
2022-08-28T05:40:44.103Z,101012.48
2022-08-28T05:41:45.690Z,101013.50
2022-08-28T05:42:48.186Z,101014.56
2022-08-28T05:43:49.950Z,101014.25
2022-08-28T05:44:54.730Z,101014.77
2022-08-28T05:45:57.805Z,101018.89
2022-08-28T05:47:00.530Z,101015.54
2022-08-28T05:48:02.609Z,101016.44
2022-08-28T05:49:09.613Z,101015.36
2022-08-28T05:50:14.691Z,101017.44
2022-08-28T05:51:18.816Z,101017.55
2022-08-28T05:52:21.189Z,101021.27
2022-08-28T05:53:22.716Z,101018.69
2022-08-28T05:54:24.399Z,101017.59
2022-08-28T05:55:26.020Z,101017.38
2022-08-28T05:56:29.275Z,101018.48
2022-08-28T05:57:30.912Z,101020.67
2022-08-28T05:58:34.099Z,101020.82
2022-08-28T05:59:35.904Z,101020.74
2022-08-28T06:00:37.447Z,101018.45
2022-08-28T06:01:44.242Z,101017.97
2022-08-28T06:02:46.005Z,101022.41
2022-08-28T06:03:53.232Z,101023.67
2022-08-28T06:04:55.124Z,101023.89
2022-08-28T06:05:56.744Z,101026.81
2022-08-28T06:06:58.241Z,101026.56
2022-08-28T06:07:59.745Z,101027.73
2022-08-28T06:09:04.308Z,101024.40
2022-08-28T06:10:06.876Z,101027.73
2022-08-28T06:11:12.351Z,101023.77
2022-08-28T06:12:14.961Z,101027.45
2022-08-28T06:13:16.947Z,101025.64
2022-08-28T06:14:20.128Z,101025.98
2022-08-28T06:15:21.971Z,101022.08
2022-08-28T06:16:23.727Z,101026.30
2022-08-28T06:17:25.668Z,101028.41
2022-08-28T06:18:27.418Z,101023.30
2022-08-28T06:19:29.980Z,101026.15
2022-08-28T06:20:35.544Z,101028.98
2022-08-28T06:21:38.111Z,101029.31
2022-08-28T06:22:39.858Z,101026.46
2022-08-28T06:23:41.518Z,101029.71
2022-08-28T06:24:43.222Z,101024.84
2022-08-28T06:25:46.528Z,101026.70
2022-08-28T06:26:48.170Z,101020.50
2022-08-28T06:27:49.850Z,101025.34
2022-08-28T06:28:52.934Z,101021.70
2022-08-28T06:29:54.530Z,101021.37
2022-08-28T06:31:17.756Z,101024.56
2022-08-28T06:32:18.084Z,101023.11
2022-08-28T06:33:20.938Z,101023.59
2022-08-28T06:34:22.560Z,101023.73
2022-08-28T06:35:24.067Z,101023.14
2022-08-28T06:36:29.452Z,101021.52
2022-08-28T06:37:31.137Z,101024.02
2022-08-28T06:38:32.951Z,101022.46
2022-08-28T06:39:34.455Z,101021.25
2022-08-28T06:40:43.963Z,101014.94
2022-08-28T06:41:45.689Z,101017.06
2022-08-28T06:42:47.591Z,101019.77
2022-08-28T06:43:49.280Z,101019.20
2022-08-28T06:44:50.957Z,101019.19
2022-08-28T06:45:53.852Z,101019.53
2022-08-28T06:46:55.910Z,101021.09
2022-08-28T06:47:57.806Z,101019.09
2022-08-28T06:49:00.852Z,101025.00
2022-08-28T06:50:02.726Z,101021.52
2022-08-28T06:51:08.849Z,101022.98
2022-08-28T06:52:10.587Z,101022.66
2022-08-28T06:53:14.597Z,101021.64
2022-08-28T06:54:21.398Z,101019.64
2022-08-28T06:55:24.400Z,101019.63
2022-08-28T06:56:27.151Z,101020.16
2022-08-28T06:57:29.222Z,101024.02
2022-08-28T06:58:32.019Z,101022.67
2022-08-28T06:59:33.596Z,101022.98
2022-08-28T07:00:35.650Z,101026.20
2022-08-28T07:01:37.358Z,101024.38
2022-08-28T07:02:39.193Z,101025.25
2022-08-28T07:03:42.696Z,101028.19
2022-08-28T07:04:49.803Z,101028.15
2022-08-28T07:05:54.860Z,101029.69
2022-08-28T07:06:56.530Z,101031.82
2022-08-28T07:07:58.554Z,101032.94
2022-08-28T07:09:00.569Z,101029.69
2022-08-28T07:10:02.157Z,101030.16
2022-08-28T07:11:09.851Z,101029.10
2022-08-28T07:12:15.484Z,101029.11
2022-08-28T07:13:17.855Z,101031.55
2022-08-28T07:14:19.452Z,101033.71
2022-08-28T07:15:21.140Z,101032.83
2022-08-28T07:16:24.620Z,101033.63
2022-08-28T07:17:26.219Z,101033.17
2022-08-28T07:18:28.579Z,101034.02
2022-08-28T07:19:30.259Z,101033.96
2022-08-28T07:20:32.061Z,101031.02
2022-08-28T07:21:38.768Z,101029.63
2022-08-28T07:22:41.083Z,101032.27
2022-08-28T07:23:43.687Z,101035.55
2022-08-28T07:24:45.310Z,101035.95
2022-08-28T07:25:46.855Z,101036.42
2022-08-28T07:26:48.742Z,101035.02
2022-08-28T07:27:50.869Z,101033.38
2022-08-28T07:28:53.695Z,101035.38
2022-08-28T07:30:12.658Z,101034.70
2022-08-28T07:31:15.898Z,101033.21
2022-08-28T07:32:20.055Z,101033.59
2022-08-28T07:33:21.688Z,101035.83
2022-08-28T07:34:27.081Z,101033.69
2022-08-28T07:35:29.035Z,101035.08
2022-08-28T07:36:30.578Z,101033.34
2022-08-28T07:37:32.286Z,101036.34
2022-08-28T07:38:36.247Z,101033.56
2022-08-28T07:39:38.067Z,101035.16
2022-08-28T07:40:39.869Z,101034.45
2022-08-28T07:41:42.060Z,101036.89
2022-08-28T07:43:02.333Z,101034.61
2022-08-28T07:44:22.881Z,101036.20
2022-08-28T07:45:25.562Z,101035.98
2022-08-28T07:46:28.549Z,101037.79
2022-08-28T07:47:30.910Z,101035.50
2022-08-28T07:48:34.739Z,101036.14
2022-08-28T07:49:37.739Z,101036.36
2022-08-28T07:50:39.453Z,101040.31
2022-08-28T07:51:43.082Z,101038.77
2022-08-28T07:52:48.409Z,101037.77
2022-08-28T07:53:50.079Z,101040.37
2022-08-28T07:54:51.765Z,101040.37
2022-08-28T07:55:53.335Z,101039.98
2022-08-28T07:56:54.908Z,101041.34
2022-08-28T07:57:56.450Z,101040.63
2022-08-28T07:59:00.504Z,101042.05
2022-08-28T08:00:03.455Z,101041.16
2022-08-28T08:01:13.409Z,101046.06
2022-08-28T08:02:15.913Z,101047.16
2022-08-28T08:03:17.640Z,101045.30
2022-08-28T08:04:20.890Z,101043.89
2022-08-28T08:05:22.589Z,101045.92
2022-08-28T08:06:27.195Z,101047.85
2022-08-28T08:07:37.439Z,101049.52
2022-08-28T08:08:44.727Z,101045.20
2022-08-28T08:09:46.331Z,101048.08
2022-08-28T08:10:57.201Z,101047.91
2022-08-28T08:11:59.391Z,101044.52
2022-08-28T08:13:02.521Z,101044.86
2022-08-28T08:14:05.775Z,101043.63
2022-08-28T08:15:09.188Z,101041.27
2022-08-28T08:16:16.635Z,101041.78
2022-08-28T08:17:18.393Z,101045.39
2022-08-28T08:18:20.824Z,101041.91
2022-08-28T08:19:25.686Z,101040.80
2022-08-28T08:20:28.038Z,101047.35
2022-08-28T08:21:30.709Z,101043.17
2022-08-28T08:22:32.987Z,101045.91
2022-08-28T08:23:35.307Z,101045.06
2022-08-28T08:24:36.975Z,101044.84
2022-08-28T08:25:38.629Z,101043.72
2022-08-28T08:26:44.939Z,101046.80
2022-08-28T08:28:00.814Z,101042.16
2022-08-28T08:29:03.111Z,101046.29
2022-08-28T08:30:04.954Z,101041.60
2022-08-28T08:31:07.946Z,101043.09
2022-08-28T08:32:10.505Z,101043.15
2022-08-28T08:33:13.149Z,101040.37
2022-08-28T08:34:15.755Z,101042.15
2022-08-28T08:35:17.343Z,101042.32
2022-08-28T08:36:20.064Z,101042.77
2022-08-28T08:37:22.232Z,101043.42
2022-08-28T08:38:23.994Z,101043.30
2022-08-28T08:39:25.825Z,101040.09
2022-08-28T08:40:27.762Z,101042.05
2022-08-28T08:41:47.353Z,101044.14
2022-08-28T08:42:51.325Z,101046.67
2022-08-28T08:43:53.010Z,101043.61
2022-08-28T08:44:56.438Z,101044.92
2022-08-28T08:45:58.349Z,101044.86
2022-08-28T08:47:14.842Z,101045.75
2022-08-28T08:48:37.378Z,101046.75
2022-08-28T08:49:41.168Z,101043.91
2022-08-28T08:50:42.659Z,101043.45
2022-08-28T08:51:53.561Z,101044.95
2022-08-28T08:52:55.329Z,101044.70
2022-08-28T08:54:04.162Z,101042.39
2022-08-28T08:55:11.955Z,101043.31
2022-08-28T08:56:21.009Z,101045.95
2022-08-28T08:57:23.570Z,101042.41
2022-08-28T08:58:32.349Z,101045.60
2022-08-28T08:59:37.732Z,101047.96
2022-08-28T09:00:55.591Z,101049.05
2022-08-28T09:02:04.596Z,101046.15
2022-08-28T09:03:09.020Z,101044.81
2022-08-28T09:04:25.641Z,101047.92
2022-08-28T09:05:41.232Z,101048.09
2022-08-28T09:06:47.688Z,101049.75
2022-08-28T09:07:57.161Z,101048.45
2022-08-28T09:09:01.769Z,101048.09
2022-08-28T09:10:04.307Z,101049.52
2022-08-28T09:11:12.016Z,101049.97
2022-08-28T09:12:16.438Z,101048.27
2022-08-28T09:13:38.387Z,101046.95
2022-08-28T09:14:56.922Z,101045.38
2022-08-28T09:15:59.745Z,101044.67
2022-08-28T09:17:01.970Z,101044.98
2022-08-28T09:18:06.770Z,101046.43
2022-08-28T09:19:10.201Z,101040.14
2022-08-28T09:20:13.303Z,101041.88
2022-08-28T09:21:29.071Z,101042.06
2022-08-28T09:22:31.074Z,101036.92
2022-08-28T09:23:32.786Z,101038.10
2022-08-28T09:24:36.821Z,101038.81
2022-08-28T09:25:47.109Z,101037.17
2022-08-28T09:26:54.684Z,101039.02
2022-08-28T09:28:04.987Z,101039.59
2022-08-28T09:29:13.490Z,101041.88
2022-08-28T09:30:27.582Z,101040.33
2022-08-28T09:31:33.778Z,101039.99
2022-08-28T09:32:43.717Z,101040.65
2022-08-28T09:33:47.398Z,101039.48
2022-08-28T09:35:06.408Z,101041.20
2022-08-28T09:36:23.594Z,101042.23
2022-08-28T09:37:26.904Z,101041.88
2022-08-28T09:38:29.302Z,101042.53
2022-08-28T09:39:32.041Z,101043.67
2022-08-28T09:40:52.529Z,101045.25
2022-08-28T09:42:15.542Z,101046.95
2022-08-28T09:43:26.024Z,101048.85
2022-08-28T09:44:28.057Z,101049.95
2022-08-28T09:45:29.983Z,101048.83
2022-08-28T09:46:32.014Z,101051.17
2022-08-28T09:47:46.888Z,101045.48
2022-08-28T09:48:53.045Z,101043.83
2022-08-28T09:49:54.533Z,101047.84
2022-08-28T09:51:03.021Z,101042.32
2022-08-28T09:52:20.796Z,101041.29
2022-08-28T09:53:27.887Z,101038.80
2022-08-28T09:54:35.830Z,101041.56
2022-08-28T09:55:37.289Z,101034.36
2022-08-28T09:56:44.191Z,101034.20
2022-08-28T09:57:46.569Z,101030.14
2022-08-28T09:58:53.974Z,101031.59
2022-08-28T09:59:56.835Z,101029.23
2022-08-28T10:01:21.484Z,101029.23
2022-08-28T10:02:28.299Z,101030.19
2022-08-28T10:03:33.201Z,101030.55
2022-08-28T10:04:53.278Z,101034.05
2022-08-28T10:05:55.210Z,101032.77
2022-08-28T10:07:03.326Z,101030.61
2022-08-28T10:08:12.619Z,101034.80
2022-08-28T10:09:20.735Z,101030.84
2022-08-28T10:10:28.403Z,101031.98
2022-08-28T10:11:44.327Z,101032.46
2022-08-28T10:13:08.125Z,101033.82
2022-08-28T10:14:14.775Z,101031.46
2022-08-28T10:15:16.727Z,101031.90
2022-08-28T10:16:28.088Z,101029.97
2022-08-28T10:17:37.827Z,101032.59
2022-08-28T10:18:45.474Z,101030.86
2022-08-28T10:19:59.797Z,101031.83
2022-08-28T10:21:01.545Z,101026.98
2022-08-28T10:22:21.386Z,101029.95
2022-08-28T10:23:23.892Z,101031.27
2022-08-28T10:24:29.052Z,101032.27
2022-08-28T10:25:32.321Z,101033.13
2022-08-28T10:26:52.585Z,101033.09
2022-08-28T10:28:09.919Z,101037.87
2022-08-28T10:29:14.903Z,101038.80
2022-08-28T10:30:20.069Z,101043.64
2022-08-28T10:31:36.744Z,101041.38
2022-08-28T10:33:02.474Z,101038.58
2022-08-28T10:34:07.599Z,101038.45
2022-08-28T10:35:11.264Z,101037.52
2022-08-28T10:36:33.593Z,101039.36
2022-08-28T10:37:48.885Z,101038.38
2022-08-28T10:39:03.328Z,101039.27
2022-08-28T10:40:10.821Z,101039.50
2022-08-28T10:41:23.232Z,101043.90
2022-08-28T10:42:36.326Z,101044.05
2022-08-28T10:43:45.861Z,101045.33
2022-08-28T10:44:55.023Z,101044.77
2022-08-28T10:46:03.052Z,101049.84
2022-08-28T10:47:05.074Z,101047.83
2022-08-28T10:48:06.757Z,101051.20
2022-08-28T10:49:19.603Z,101047.19
2022-08-28T10:50:47.334Z,101049.99
2022-08-28T10:51:52.450Z,101047.09
2022-08-28T10:53:05.618Z,101045.13
2022-08-28T10:54:21.228Z,101043.80
2022-08-28T10:55:24.846Z,101045.42
2022-08-28T10:56:55.990Z,101044.54
2022-08-28T10:58:04.172Z,101046.39
2022-08-28T10:59:05.760Z,101045.34
2022-08-28T11:00:15.454Z,101046.45
2022-08-28T11:01:26.547Z,101047.86
2022-08-28T11:02:29.494Z,101046.01
2022-08-28T11:03:36.335Z,101046.54
2022-08-28T11:04:38.043Z,101047.34
2022-08-28T11:05:53.745Z,101049.89
2022-08-28T11:06:58.319Z,101048.55
2022-08-28T11:08:04.529Z,101048.46
2022-08-28T11:09:26.922Z,101043.77
2022-08-28T11:10:31.494Z,101048.00
2022-08-28T11:11:40.247Z,101049.29
2022-08-28T11:12:42.749Z,101050.48
2022-08-28T11:13:44.391Z,101051.32
2022-08-28T11:14:48.980Z,101055.01
2022-08-28T11:15:52.935Z,101055.23
2022-08-28T11:16:56.494Z,101054.95
2022-08-28T11:18:13.371Z,101057.27
2022-08-28T11:19:33.440Z,101058.45
2022-08-28T11:20:35.640Z,101060.15
2022-08-28T11:21:40.999Z,101056.94
2022-08-28T11:22:51.117Z,101059.20
2022-08-28T11:23:59.433Z,101059.98
2022-08-28T11:25:09.071Z,101060.19
2022-08-28T11:26:14.037Z,101060.65
2022-08-28T11:27:23.182Z,101063.85
2022-08-28T11:28:24.969Z,101064.41
2022-08-28T11:29:45.309Z,101064.95
2022-08-28T11:30:48.830Z,101066.91
2022-08-28T11:32:11.461Z,101064.14
2022-08-28T11:33:31.813Z,101065.59
2022-08-28T11:34:52.001Z,101068.48
2022-08-28T11:35:53.687Z,101069.41
2022-08-28T11:36:56.466Z,101070.58
2022-08-28T11:37:58.066Z,101068.98
2022-08-28T11:39:01.316Z,101069.39
2022-08-28T11:40:21.802Z,101069.45
2022-08-28T11:41:25.789Z,101070.30
2022-08-28T11:42:29.010Z,101072.93
2022-08-28T11:43:34.182Z,101071.17
2022-08-28T11:44:41.066Z,101077.34
2022-08-28T11:45:42.846Z,101077.75
2022-08-28T11:46:49.650Z,101078.66
2022-08-28T11:47:55.563Z,101082.84
2022-08-28T11:48:58.821Z,101084.31
2022-08-28T11:50:20.822Z,101083.02
2022-08-28T11:51:22.507Z,101082.85
2022-08-28T11:52:35.377Z,101087.53
2022-08-28T11:53:36.873Z,101089.48
2022-08-28T11:54:38.383Z,101087.92
2022-08-28T11:55:56.706Z,101088.36
2022-08-28T11:57:07.866Z,101087.65
2022-08-28T11:58:22.542Z,101089.05
2022-08-28T11:59:35.108Z,101089.95
2022-08-28T12:00:52.105Z,101094.16
2022-08-28T12:01:53.973Z,101092.30
2022-08-28T12:03:02.281Z,101093.81
2022-08-28T12:04:14.936Z,101091.66
2022-08-28T12:05:16.520Z,101093.44
2022-08-28T12:06:38.034Z,101093.59
2022-08-28T12:07:42.878Z,101093.20
2022-08-28T12:08:48.346Z,101091.80
2022-08-28T12:09:50.039Z,101091.03
2022-08-28T12:10:53.606Z,101095.07
2022-08-28T12:11:57.086Z,101092.84
2022-08-28T12:12:58.594Z,101093.52
2022-08-28T12:14:00.279Z,101092.86
2022-08-28T12:15:06.966Z,101095.58
2022-08-28T12:16:08.806Z,101097.21
2022-08-28T12:17:16.544Z,101096.73
2022-08-28T12:18:38.092Z,101095.48
2022-08-28T12:19:50.027Z,101095.33
2022-08-28T12:21:00.105Z,101096.31